sensor_id;sensor_type;location;lat;lon;timestamp;P1;durP1;ratioP1;P2;durP2;ratioP2
18425;SDS011;9340;48.756;9.226;2023-06-24T00:00:40;6.43;;;5.93;;
18425;SDS011;9340;48.756;9.226;2023-06-24T00:03:06;7.17;;;6.47;;
18425;SDS011;9340;48.756;9.226;2023-06-24T00:05:33;6.63;;;6.03;;
18425;SDS011;9340;48.756;9.226;2023-06-24T00:07:59;6.53;;;5.93;;
18425;SDS011;9340;48.756;9.226;2023-06-24T00:10:27;6.37;;;5.87;;
18425;SDS011;9340;48.756;9.226;2023-06-24T00:12:55;7.33;;;6.63;;
18425;SDS011;9340;48.756;9.226;2023-06-24T00:15:26;6.03;;;5.53;;
18425;SDS011;9340;48.756;9.226;2023-06-24T00:17:52;6.17;;;5.67;;
18425;SDS011;9340;48.756;9.226;2023-06-24T00:20:24;6.33;;;5.83;;
18425;SDS011;9340;48.756;9.226;2023-06-24T00:22:51;6.37;;;5.77;;
18425;SDS011;9340;48.756;9.226;2023-06-24T00:25:18;6.60;;;6.00;;
18425;SDS011;9340;48.756;9.226;2023-06-24T00:27:44;7.33;;;6.77;;
18425;SDS011;9340;48.756;9.226;2023-06-24T00:30:13;6.60;;;6.10;;
18425;SDS011;9340;48.756;9.226;2023-06-24T00:32:40;6.53;;;5.93;;
18425;SDS011;9340;48.756;9.226;2023-06-24T00:35:07;6.47;;;5.90;;
18425;SDS011;9340;48.756;9.226;2023-06-24T00:37:34;6.80;;;6.23;;
18425;SDS011;9340;48.756;9.226;2023-06-24T00:40:01;6.30;;;5.80;;
18425;SDS011;9340;48.756;9.226;2023-06-24T00:42:28;6.13;;;5.73;;
18425;SDS011;9340;48.756;9.226;2023-06-24T00:44:55;6.93;;;6.37;;
18425;SDS011;9340;48.756;9.226;2023-06-24T00:47:23;7.00;;;6.50;;
18425;SDS011;9340;48.756;9.226;2023-06-24T00:49:50;6.60;;;6.00;;
18425;SDS011;9340;48.756;9.226;2023-06-24T00:52:17;6.87;;;6.27;;
18425;SDS011;9340;48.756;9.226;2023-06-24T00:54:44;6.80;;;6.20;;
18425;SDS011;9340;48.756;9.226;2023-06-24T00:57:10;7.23;;;6.63;;
18425;SDS011;9340;48.756;9.226;2023-06-24T00:59:38;5.73;;;5.33;;
18425;SDS011;9340;48.756;9.226;2023-06-24T01:02:08;7.30;;;6.70;;
18425;SDS011;9340;48.756;9.226;2023-06-24T01:04:36;7.40;;;6.80;;
18425;SDS011;9340;48.756;9.226;2023-06-24T01:07:03;7.57;;;6.97;;
18425;SDS011;9340;48.756;9.226;2023-06-24T01:09:31;7.03;;;6.43;;
18425;SDS011;9340;48.756;9.226;2023-06-24T01:11:58;7.47;;;6.87;;
18425;SDS011;9340;48.756;9.226;2023-06-24T01:14:24;7.23;;;6.53;;
18425;SDS011;9340;48.756;9.226;2023-06-24T01:16:53;7.07;;;6.53;;
18425;SDS011;9340;48.756;9.226;2023-06-24T01:19:33;7.40;;;6.80;;
18425;SDS011;9340;48.756;9.226;2023-06-24T01:22:17;6.63;;;6.03;;
18425;SDS011;9340;48.756;9.226;2023-06-24T01:24:59;6.87;;;6.27;;
18425;SDS011;9340;48.756;9.226;2023-06-24T01:27:52;7.50;;;6.80;;
18425;SDS011;9340;48.756;9.226;2023-06-24T01:30:43;7.33;;;6.67;;
18425;SDS011;9340;48.756;9.226;2023-06-24T01:33:22;6.97;;;6.37;;
18425;SDS011;9340;48.756;9.226;2023-06-24T01:35:56;7.57;;;6.97;;
18425;SDS011;9340;48.756;9.226;2023-06-24T01:38:27;7.17;;;6.67;;
18425;SDS011;9340;48.756;9.226;2023-06-24T01:41:03;7.83;;;7.07;;
18425;SDS011;9340;48.756;9.226;2023-06-24T01:43:30;7.67;;;6.97;;
18425;SDS011;9340;48.756;9.226;2023-06-24T01:46:00;7.80;;;7.10;;
18425;SDS011;9340;48.756;9.226;2023-06-24T01:48:29;7.90;;;7.20;;
18425;SDS011;9340;48.756;9.226;2023-06-24T01:51:01;7.27;;;6.67;;
18425;SDS011;9340;48.756;9.226;2023-06-24T01:53:34;8.20;;;7.40;;
18425;SDS011;9340;48.756;9.226;2023-06-24T01:56:04;7.97;;;7.17;;
18425;SDS011;9340;48.756;9.226;2023-06-24T01:58:33;8.40;;;7.60;;
18425;SDS011;9340;48.756;9.226;2023-06-24T02:01:02;8.17;;;7.47;;
18425;SDS011;9340;48.756;9.226;2023-06-24T02:03:30;8.37;;;7.67;;
18425;SDS011;9340;48.756;9.226;2023-06-24T02:05:58;8.20;;;7.50;;
18425;SDS011;9340;48.756;9.226;2023-06-24T02:08:26;8.77;;;8.07;;
18425;SDS011;9340;48.756;9.226;2023-06-24T02:10:56;8.07;;;7.27;;
18425;SDS011;9340;48.756;9.226;2023-06-24T02:13:25;8.23;;;7.43;;
18425;SDS011;9340;48.756;9.226;2023-06-24T02:15:53;8.67;;;7.97;;
18425;SDS011;9340;48.756;9.226;2023-06-24T02:18:21;8.43;;;7.73;;
18425;SDS011;9340;48.756;9.226;2023-06-24T02:20:50;8.07;;;7.37;;
18425;SDS011;9340;48.756;9.226;2023-06-24T02:23:17;9.13;;;8.33;;
18425;SDS011;9340;48.756;9.226;2023-06-24T02:25:46;8.13;;;7.47;;
18425;SDS011;9340;48.756;9.226;2023-06-24T02:28:13;7.67;;;6.97;;
18425;SDS011;9340;48.756;9.226;2023-06-24T02:30:41;8.83;;;8.03;;
18425;SDS011;9340;48.756;9.226;2023-06-24T02:33:09;8.67;;;7.87;;
18425;SDS011;9340;48.756;9.226;2023-06-24T02:35:36;9.93;;;9.10;;
18425;SDS011;9340;48.756;9.226;2023-06-24T02:38:04;9.07;;;8.20;;
18425;SDS011;9340;48.756;9.226;2023-06-24T02:40:31;8.53;;;7.83;;
18425;SDS011;9340;48.756;9.226;2023-06-24T02:42:59;8.50;;;7.80;;
18425;SDS011;9340;48.756;9.226;2023-06-24T02:45:26;9.33;;;8.50;;
18425;SDS011;9340;48.756;9.226;2023-06-24T02:47:53;8.03;;;7.43;;
18425;SDS011;9340;48.756;9.226;2023-06-24T02:50:21;8.40;;;7.67;;
18425;SDS011;9340;48.756;9.226;2023-06-24T02:52:49;8.73;;;8.03;;
18425;SDS011;9340;48.756;9.226;2023-06-24T02:55:18;8.70;;;7.90;;
18425;SDS011;9340;48.756;9.226;2023-06-24T02:57:45;8.20;;;7.60;;
18425;SDS011;9340;48.756;9.226;2023-06-24T03:00:13;9.03;;;8.23;;
18425;SDS011;9340;48.756;9.226;2023-06-24T03:02:41;9.10;;;8.30;;
18425;SDS011;9340;48.756;9.226;2023-06-24T03:05:09;9.40;;;8.70;;
18425;SDS011;9340;48.756;9.226;2023-06-24T03:07:36;10.27;;;9.40;;
18425;SDS011;9340;48.756;9.226;2023-06-24T03:10:04;8.97;;;8.27;;
18425;SDS011;9340;48.756;9.226;2023-06-24T03:12:33;8.80;;;8.10;;
18425;SDS011;9340;48.756;9.226;2023-06-24T03:15:00;8.90;;;8.17;;
18425;SDS011;9340;48.756;9.226;2023-06-24T03:17:27;9.87;;;9.07;;
18425;SDS011;9340;48.756;9.226;2023-06-24T03:19:54;9.27;;;7.17;;
18425;SDS011;9340;48.756;9.226;2023-06-24T03:22:21;8.70;;;8.00;;
18425;SDS011;9340;48.756;9.226;2023-06-24T03:24:48;9.20;;;8.50;;
18425;SDS011;9340;48.756;9.226;2023-06-24T03:27:16;10.23;;;9.33;;
18425;SDS011;9340;48.756;9.226;2023-06-24T03:29:45;9.30;;;8.50;;
18425;SDS011;9340;48.756;9.226;2023-06-24T03:32:11;10.83;;;9.93;;
18425;SDS011;9340;48.756;9.226;2023-06-24T03:34:38;9.83;;;9.00;;
18425;SDS011;9340;48.756;9.226;2023-06-24T03:37:05;9.33;;;8.53;;
18425;SDS011;9340;48.756;9.226;2023-06-24T03:39:32;9.20;;;8.43;;
18425;SDS011;9340;48.756;9.226;2023-06-24T03:41:58;9.13;;;8.30;;
18425;SDS011;9340;48.756;9.226;2023-06-24T03:44:25;9.33;;;8.63;;
18425;SDS011;9340;48.756;9.226;2023-06-24T03:46:53;8.90;;;8.17;;
18425;SDS011;9340;48.756;9.226;2023-06-24T03:49:20;10.27;;;9.37;;
18425;SDS011;9340;48.756;9.226;2023-06-24T03:51:47;8.73;;;8.03;;
18425;SDS011;9340;48.756;9.226;2023-06-24T03:54:13;9.77;;;8.87;;
18425;SDS011;9340;48.756;9.226;2023-06-24T03:56:40;7.90;;;7.20;;
18425;SDS011;9340;48.756;9.226;2023-06-24T03:59:07;9.17;;;8.33;;
18425;SDS011;9340;48.756;9.226;2023-06-24T04:01:33;8.87;;;8.07;;
18425;SDS011;9340;48.756;9.226;2023-06-24T04:04:02;9.17;;;8.47;;
18425;SDS011;9340;48.756;9.226;2023-06-24T04:06:29;8.57;;;7.97;;
18425;SDS011;9340;48.756;9.226;2023-06-24T04:08:56;8.87;;;8.13;;
18425;SDS011;9340;48.756;9.226;2023-06-24T04:11:23;9.10;;;8.33;;
18425;SDS011;9340;48.756;9.226;2023-06-24T04:13:50;8.00;;;7.40;;
18425;SDS011;9340;48.756;9.226;2023-06-24T04:16:17;9.27;;;8.43;;
18425;SDS011;9340;48.756;9.226;2023-06-24T04:18:43;8.67;;;7.97;;
18425;SDS011;9340;48.756;9.226;2023-06-24T04:21:11;9.13;;;8.33;;
18425;SDS011;9340;48.756;9.226;2023-06-24T04:23:39;8.73;;;8.03;;
18425;SDS011;9340;48.756;9.226;2023-06-24T04:26:06;8.77;;;8.07;;
18425;SDS011;9340;48.756;9.226;2023-06-24T04:28:32;7.77;;;7.07;;
18425;SDS011;9340;48.756;9.226;2023-06-24T04:30:59;8.50;;;7.70;;
18425;SDS011;9340;48.756;9.226;2023-06-24T04:33:26;8.17;;;7.47;;
18425;SDS011;9340;48.756;9.226;2023-06-24T04:35:53;8.07;;;7.37;;
18425;SDS011;9340;48.756;9.226;2023-06-24T04:38:21;9.37;;;8.57;;
18425;SDS011;9340;48.756;9.226;2023-06-24T04:40:48;7.87;;;7.27;;
18425;SDS011;9340;48.756;9.226;2023-06-24T04:43:15;8.77;;;8.03;;
18425;SDS011;9340;48.756;9.226;2023-06-24T04:45:41;8.50;;;7.90;;
18425;SDS011;9340;48.756;9.226;2023-06-24T04:48:08;9.07;;;8.23;;
18425;SDS011;9340;48.756;9.226;2023-06-24T04:50:35;9.00;;;8.20;;
18425;SDS011;9340;48.756;9.226;2023-06-24T04:53:01;8.17;;;7.57;;
18425;SDS011;9340;48.756;9.226;2023-06-24T04:55:29;8.90;;;8.13;;
18425;SDS011;9340;48.756;9.226;2023-06-24T04:57:56;8.63;;;7.93;;
18425;SDS011;9340;48.756;9.226;2023-06-24T05:00:23;8.03;;;7.43;;
18425;SDS011;9340;48.756;9.226;2023-06-24T05:02:49;8.27;;;7.67;;
18425;SDS011;9340;48.756;9.226;2023-06-24T05:05:17;9.17;;;8.27;;
18425;SDS011;9340;48.756;9.226;2023-06-24T05:07:44;8.73;;;7.67;;
18425;SDS011;9340;48.756;9.226;2023-06-24T05:10:10;8.93;;;8.23;;
18425;SDS011;9340;48.756;9.226;2023-06-24T05:12:38;9.37;;;8.57;;
18425;SDS011;9340;48.756;9.226;2023-06-24T05:15:05;8.57;;;7.83;;
18425;SDS011;9340;48.756;9.226;2023-06-24T05:17:33;8.07;;;7.47;;
18425;SDS011;9340;48.756;9.226;2023-06-24T05:19:59;7.55;;;6.95;;
18425;SDS011;9340;48.756;9.226;2023-06-24T05:22:26;7.40;;;6.80;;
18425;SDS011;9340;48.756;9.226;2023-06-24T05:24:53;8.02;;;7.32;;
18425;SDS011;9340;48.756;9.226;2023-06-24T05:27:19;8.38;;;7.72;;
18425;SDS011;9340;48.756;9.226;2023-06-24T05:29:47;7.75;;;7.13;;
18425;SDS011;9340;48.756;9.226;2023-06-24T05:32:14;7.90;;;7.28;;
18425;SDS011;9340;48.756;9.226;2023-06-24T05:34:42;7.22;;;6.63;;
18425;SDS011;9340;48.756;9.226;2023-06-24T05:37:09;7.97;;;7.28;;
18425;SDS011;9340;48.756;9.226;2023-06-24T05:39:35;7.47;;;6.78;;
18425;SDS011;9340;48.756;9.226;2023-06-24T05:42:02;7.10;;;6.55;;
18425;SDS011;9340;48.756;9.226;2023-06-24T05:44:29;7.57;;;6.97;;
18425;SDS011;9340;48.756;9.226;2023-06-24T05:46:57;7.15;;;6.45;;
18425;SDS011;9340;48.756;9.226;2023-06-24T05:49:24;6.97;;;6.47;;
18425;SDS011;9340;48.756;9.226;2023-06-24T05:51:51;7.05;;;6.45;;
18425;SDS011;9340;48.756;9.226;2023-06-24T05:54:17;6.85;;;6.35;;
18425;SDS011;9340;48.756;9.226;2023-06-24T05:56:44;6.40;;;5.90;;
18425;SDS011;9340;48.756;9.226;2023-06-24T05:59:11;6.22;;;5.72;;
18425;SDS011;9340;48.756;9.226;2023-06-24T06:01:37;6.00;;;5.47;;
18425;SDS011;9340;48.756;9.226;2023-06-24T06:04:05;5.57;;;5.07;;
18425;SDS011;9340;48.756;9.226;2023-06-24T06:06:32;6.00;;;5.50;;
18425;SDS011;9340;48.756;9.226;2023-06-24T06:08:59;5.13;;;4.72;;
18425;SDS011;9340;48.756;9.226;2023-06-24T06:11:25;6.70;;;6.15;;
18425;SDS011;9340;48.756;9.226;2023-06-24T06:13:52;6.50;;;5.90;;
18425;SDS011;9340;48.756;9.226;2023-06-24T06:16:19;5.70;;;5.30;;
18425;SDS011;9340;48.756;9.226;2023-06-24T06:18:46;5.22;;;4.82;;
18425;SDS011;9340;48.756;9.226;2023-06-24T06:21:14;5.68;;;5.18;;
18425;SDS011;9340;48.756;9.226;2023-06-24T06:23:40;6.40;;;5.80;;
18425;SDS011;9340;48.756;9.226;2023-06-24T06:26:07;5.70;;;5.20;;
18425;SDS011;9340;48.756;9.226;2023-06-24T06:28:34;5.88;;;5.47;;
18425;SDS011;9340;48.756;9.226;2023-06-24T06:31:00;6.18;;;5.68;;
18425;SDS011;9340;48.756;9.226;2023-06-24T06:33:27;5.75;;;5.30;;
18425;SDS011;9340;48.756;9.226;2023-06-24T06:35:54;5.18;;;4.78;;
18425;SDS011;9340;48.756;9.226;2023-06-24T06:38:22;5.13;;;4.72;;
18425;SDS011;9340;48.756;9.226;2023-06-24T06:40:48;5.65;;;5.13;;
18425;SDS011;9340;48.756;9.226;2023-06-24T06:43:15;5.35;;;4.95;;
18425;SDS011;9340;48.756;9.226;2023-06-24T06:45:42;5.57;;;5.18;;
18425;SDS011;9340;48.756;9.226;2023-06-24T06:48:08;5.65;;;5.15;;
18425;SDS011;9340;48.756;9.226;2023-06-24T06:50:35;5.80;;;5.30;;
18425;SDS011;9340;48.756;9.226;2023-06-24T06:53:02;5.88;;;5.32;;
18425;SDS011;9340;48.756;9.226;2023-06-24T06:55:30;5.65;;;5.25;;
18425;SDS011;9340;48.756;9.226;2023-06-24T06:57:56;5.55;;;4.50;;
18425;SDS011;9340;48.756;9.226;2023-06-24T07:00:23;5.43;;;5.03;;
18425;SDS011;9340;48.756;9.226;2023-06-24T07:02:50;5.75;;;5.25;;
18425;SDS011;9340;48.756;9.226;2023-06-24T07:05:16;5.18;;;4.78;;
18425;SDS011;9340;48.756;9.226;2023-06-24T07:07:43;5.30;;;4.80;;
18425;SDS011;9340;48.756;9.226;2023-06-24T07:10:10;5.07;;;4.78;;
18425;SDS011;9340;48.756;9.226;2023-06-24T07:12:38;5.07;;;4.68;;
18425;SDS011;9340;48.756;9.226;2023-06-24T07:15:05;5.32;;;4.82;;
18425;SDS011;9340;48.756;9.226;2023-06-24T07:17:32;5.40;;;4.90;;
18425;SDS011;9340;48.756;9.226;2023-06-24T07:19:59;4.50;;;4.20;;
18425;SDS011;9340;48.756;9.226;2023-06-24T07:22:26;5.60;;;5.20;;
18425;SDS011;9340;48.756;9.226;2023-06-24T07:24:52;5.00;;;4.60;;
18425;SDS011;9340;48.756;9.226;2023-06-24T07:27:21;5.20;;;4.80;;
18425;SDS011;9340;48.756;9.226;2023-06-24T07:29:49;5.10;;;4.65;;
18425;SDS011;9340;48.756;9.226;2023-06-24T07:32:16;4.80;;;4.40;;
18425;SDS011;9340;48.756;9.226;2023-06-24T07:34:42;5.82;;;5.00;;
18425;SDS011;9340;48.756;9.226;2023-06-24T07:37:09;5.93;;;5.32;;
18425;SDS011;9340;48.756;9.226;2023-06-24T07:39:35;4.82;;;4.53;;
18425;SDS011;9340;48.756;9.226;2023-06-24T07:42:02;4.85;;;4.45;;
18425;SDS011;9340;48.756;9.226;2023-06-24T07:44:30;5.22;;;4.75;;
18425;SDS011;9340;48.756;9.226;2023-06-24T07:46:58;5.97;;;4.68;;
18425;SDS011;9340;48.756;9.226;2023-06-24T07:49:24;4.60;;;4.20;;
18425;SDS011;9340;48.756;9.226;2023-06-24T07:51:51;5.03;;;4.63;;
18425;SDS011;9340;48.756;9.226;2023-06-24T07:54:18;5.38;;;4.97;;
18425;SDS011;9340;48.756;9.226;2023-06-24T07:56:44;4.85;;;4.45;;
18425;SDS011;9340;48.756;9.226;2023-06-24T07:59:11;4.63;;;4.25;;
18425;SDS011;9340;48.756;9.226;2023-06-24T08:01:37;5.40;;;4.90;;
18425;SDS011;9340;48.756;9.226;2023-06-24T08:04:06;6.57;;;4.82;;
18425;SDS011;9340;48.756;9.226;2023-06-24T08:06:32;5.13;;;4.60;;
18425;SDS011;9340;48.756;9.226;2023-06-24T08:08:59;4.80;;;4.40;;
18425;SDS011;9340;48.756;9.226;2023-06-24T08:11:26;5.30;;;4.82;;
18425;SDS011;9340;48.756;9.226;2023-06-24T08:13:53;5.28;;;4.80;;
18425;SDS011;9340;48.756;9.226;2023-06-24T08:16:20;5.75;;;4.88;;
18425;SDS011;9340;48.756;9.226;2023-06-24T08:18:46;5.60;;;4.93;;
18425;SDS011;9340;48.756;9.226;2023-06-24T08:21:14;5.45;;;5.00;;
18425;SDS011;9340;48.756;9.226;2023-06-24T08:23:41;5.47;;;4.97;;
18425;SDS011;9340;48.756;9.226;2023-06-24T08:26:08;4.90;;;4.50;;
18425;SDS011;9340;48.756;9.226;2023-06-24T08:28:34;4.60;;;4.20;;
18425;SDS011;9340;48.756;9.226;2023-06-24T08:31:01;4.93;;;4.43;;
18425;SDS011;9340;48.756;9.226;2023-06-24T08:33:28;4.93;;;4.53;;
18425;SDS011;9340;48.756;9.226;2023-06-24T08:35:55;4.63;;;4.28;;
18425;SDS011;9340;48.756;9.226;2023-06-24T08:38:23;4.78;;;4.30;;
18425;SDS011;9340;48.756;9.226;2023-06-24T08:40:49;5.07;;;4.68;;
18425;SDS011;9340;48.756;9.226;2023-06-24T08:43:16;4.32;;;4.00;;
18425;SDS011;9340;48.756;9.226;2023-06-24T08:45:43;4.40;;;4.10;;
18425;SDS011;9340;48.756;9.226;2023-06-24T08:48:10;4.45;;;4.05;;
18425;SDS011;9340;48.756;9.226;2023-06-24T08:50:40;5.70;;;5.07;;
18425;SDS011;9340;48.756;9.226;2023-06-24T08:53:09;4.82;;;4.43;;
18425;SDS011;9340;48.756;9.226;2023-06-24T08:55:39;4.63;;;4.25;;
18425;SDS011;9340;48.756;9.226;2023-06-24T08:58:10;5.13;;;4.68;;
18425;SDS011;9340;48.756;9.226;2023-06-24T09:00:37;4.30;;;3.95;;
18425;SDS011;9340;48.756;9.226;2023-06-24T09:03:04;4.30;;;4.00;;
18425;SDS011;9340;48.756;9.226;2023-06-24T09:05:30;4.97;;;4.45;;
18425;SDS011;9340;48.756;9.226;2023-06-24T09:07:57;4.50;;;4.07;;
18425;SDS011;9340;48.756;9.226;2023-06-24T09:10:30;4.88;;;4.47;;
18425;SDS011;9340;48.756;9.226;2023-06-24T09:12:59;4.30;;;3.90;;
18425;SDS011;9340;48.756;9.226;2023-06-24T09:15:29;4.78;;;4.40;;
18425;SDS011;9340;48.756;9.226;2023-06-24T09:17:56;4.65;;;4.25;;
18425;SDS011;9340;48.756;9.226;2023-06-24T09:20:25;4.40;;;4.00;;
18425;SDS011;9340;48.756;9.226;2023-06-24T09:22:52;5.13;;;4.72;;
18425;SDS011;9340;48.756;9.226;2023-06-24T09:25:24;4.97;;;4.57;;
18425;SDS011;9340;48.756;9.226;2023-06-24T09:27:50;4.28;;;3.97;;
18425;SDS011;9340;48.756;9.226;2023-06-24T09:30:19;4.47;;;4.10;;
18425;SDS011;9340;48.756;9.226;2023-06-24T09:32:48;4.10;;;3.80;;
18425;SDS011;9340;48.756;9.226;2023-06-24T09:35:16;5.97;;;4.30;;
18425;SDS011;9340;48.756;9.226;2023-06-24T09:37:48;4.43;;;3.50;;
18425;SDS011;9340;48.756;9.226;2023-06-24T09:40:16;5.00;;;3.90;;
18425;SDS011;9340;48.756;9.226;2023-06-24T09:42:47;4.85;;;4.40;;
18425;SDS011;9340;48.756;9.226;2023-06-24T09:45:20;4.30;;;4.00;;
18425;SDS011;9340;48.756;9.226;2023-06-24T09:47:48;4.55;;;4.25;;
18425;SDS011;9340;48.756;9.226;2023-06-24T09:50:15;4.60;;;4.30;;
18425;SDS011;9340;48.756;9.226;2023-06-24T09:52:41;5.00;;;4.60;;
18425;SDS011;9340;48.756;9.226;2023-06-24T09:55:10;5.00;;;4.50;;
18425;SDS011;9340;48.756;9.226;2023-06-24T09:57:39;5.00;;;4.63;;
18425;SDS011;9340;48.756;9.226;2023-06-24T10:00:08;4.68;;;4.32;;
18425;SDS011;9340;48.756;9.226;2023-06-24T10:02:37;4.57;;;4.28;;
18425;SDS011;9340;48.756;9.226;2023-06-24T10:05:04;4.50;;;4.10;;
18425;SDS011;9340;48.756;9.226;2023-06-24T10:07:31;5.18;;;4.43;;
18425;SDS011;9340;48.756;9.226;2023-06-24T10:09:58;4.70;;;4.30;;
18425;SDS011;9340;48.756;9.226;2023-06-24T10:12:27;4.10;;;3.70;;
18425;SDS011;9340;48.756;9.226;2023-06-24T10:14:54;4.57;;;4.20;;
18425;SDS011;9340;48.756;9.226;2023-06-24T10:17:20;4.55;;;4.15;;
18425;SDS011;9340;48.756;9.226;2023-06-24T10:19:51;4.50;;;4.20;;
18425;SDS011;9340;48.756;9.226;2023-06-24T10:22:18;4.80;;;4.43;;
18425;SDS011;9340;48.756;9.226;2023-06-24T10:24:48;4.50;;;4.20;;
18425;SDS011;9340;48.756;9.226;2023-06-24T10:27:17;4.45;;;4.03;;
18425;SDS011;9340;48.756;9.226;2023-06-24T10:29:47;4.65;;;4.25;;
18425;SDS011;9340;48.756;9.226;2023-06-24T10:32:14;4.28;;;3.97;;
18425;SDS011;9340;48.756;9.226;2023-06-24T10:34:42;4.13;;;3.83;;
18425;SDS011;9340;48.756;9.226;2023-06-24T10:37:11;4.63;;;4.22;;
18425;SDS011;9340;48.756;9.226;2023-06-24T10:39:40;4.47;;;4.18;;
18425;SDS011;9340;48.756;9.226;2023-06-24T10:42:30;4.68;;;4.32;;
18425;SDS011;9340;48.756;9.226;2023-06-24T10:44:59;4.20;;;3.90;;
18425;SDS011;9340;48.756;9.226;2023-06-24T10:47:28;4.13;;;3.83;;
18425;SDS011;9340;48.756;9.226;2023-06-24T10:49:56;4.30;;;4.00;;
18425;SDS011;9340;48.756;9.226;2023-06-24T10:52:24;4.35;;;4.05;;
18425;SDS011;9340;48.756;9.226;2023-06-24T10:54:51;4.45;;;4.05;;
18425;SDS011;9340;48.756;9.226;2023-06-24T10:57:23;4.57;;;4.22;;
18425;SDS011;9340;48.756;9.226;2023-06-24T10:59:51;4.00;;;3.70;;
18425;SDS011;9340;48.756;9.226;2023-06-24T11:02:19;5.40;;;5.00;;
18425;SDS011;9340;48.756;9.226;2023-06-24T11:04:48;4.65;;;4.35;;
18425;SDS011;9340;48.756;9.226;2023-06-24T11:07:17;4.53;;;4.18;;
18425;SDS011;9340;48.756;9.226;2023-06-24T11:09:49;5.78;;;4.10;;
18425;SDS011;9340;48.756;9.226;2023-06-24T11:12:16;4.60;;;4.10;;
18425;SDS011;9340;48.756;9.226;2023-06-24T11:14:44;4.38;;;4.03;;
18425;SDS011;9340;48.756;9.226;2023-06-24T11:17:11;3.90;;;3.60;;
18425;SDS011;9340;48.756;9.226;2023-06-24T11:19:38;4.10;;;3.80;;
18425;SDS011;9340;48.756;9.226;2023-06-24T11:22:06;4.10;;;3.80;;
18425;SDS011;9340;48.756;9.226;2023-06-24T11:24:33;4.28;;;3.97;;
18425;SDS011;9340;48.756;9.226;2023-06-24T11:27:01;5.53;;;3.78;;
18425;SDS011;9340;48.756;9.226;2023-06-24T11:29:29;4.05;;;3.75;;
18425;SDS011;9340;48.756;9.226;2023-06-24T11:31:57;4.40;;;4.10;;
18425;SDS011;9340;48.756;9.226;2023-06-24T11:34:24;3.88;;;3.58;;
18425;SDS011;9340;48.756;9.226;2023-06-24T11:36:51;4.30;;;4.00;;
18425;SDS011;9340;48.756;9.226;2023-06-24T11:39:21;4.70;;;4.13;;
18425;SDS011;9340;48.756;9.226;2023-06-24T11:41:48;4.20;;;3.90;;
18425;SDS011;9340;48.756;9.226;2023-06-24T11:44:18;4.70;;;4.32;;
18425;SDS011;9340;48.756;9.226;2023-06-24T11:46:45;4.20;;;3.65;;
18425;SDS011;9340;48.756;9.226;2023-06-24T11:49:12;4.32;;;4.03;;
18425;SDS011;9340;48.756;9.226;2023-06-24T11:51:44;3.85;;;3.55;;
18425;SDS011;9340;48.756;9.226;2023-06-24T11:54:14;4.68;;;4.28;;
18425;SDS011;9340;48.756;9.226;2023-06-24T11:56:41;4.20;;;3.90;;
18425;SDS011;9340;48.756;9.226;2023-06-24T11:59:15;4.78;;;4.47;;
18425;SDS011;9340;48.756;9.226;2023-06-24T12:01:44;4.15;;;3.75;;
18425;SDS011;9340;48.756;9.226;2023-06-24T12:04:12;4.32;;;3.92;;
18425;SDS011;9340;48.756;9.226;2023-06-24T12:06:39;4.15;;;3.85;;
18425;SDS011;9340;48.756;9.226;2023-06-24T12:09:06;4.72;;;4.43;;
18425;SDS011;9340;48.756;9.226;2023-06-24T12:11:33;5.25;;;4.75;;
18425;SDS011;9340;48.756;9.226;2023-06-24T12:14:00;4.15;;;3.85;;
18425;SDS011;9340;48.756;9.226;2023-06-24T12:16:27;3.83;;;3.53;;
18425;SDS011;9340;48.756;9.226;2023-06-24T12:18:55;4.35;;;3.95;;
18425;SDS011;9340;48.756;9.226;2023-06-24T12:21:21;5.80;;;5.20;;
18425;SDS011;9340;48.756;9.226;2023-06-24T12:23:48;6.28;;;5.78;;
18425;SDS011;9340;48.756;9.226;2023-06-24T12:26:15;7.05;;;6.45;;
18425;SDS011;9340;48.756;9.226;2023-06-24T12:28:41;4.70;;;4.32;;
18425;SDS011;9340;48.756;9.226;2023-06-24T12:31:08;4.57;;;4.28;;
18425;SDS011;9340;48.756;9.226;2023-06-24T12:33:35;4.05;;;3.75;;
18425;SDS011;9340;48.756;9.226;2023-06-24T12:36:03;4.47;;;4.18;;
18425;SDS011;9340;48.756;9.226;2023-06-24T12:38:30;4.28;;;3.97;;
18425;SDS011;9340;48.756;9.226;2023-06-24T12:40:57;4.00;;;3.70;;
18425;SDS011;9340;48.756;9.226;2023-06-24T12:43:24;4.47;;;4.18;;
18425;SDS011;9340;48.756;9.226;2023-06-24T12:45:50;3.90;;;3.60;;
18425;SDS011;9340;48.756;9.226;2023-06-24T12:48:17;4.35;;;4.05;;
18425;SDS011;9340;48.756;9.226;2023-06-24T12:50:44;4.13;;;3.83;;
18425;SDS011;9340;48.756;9.226;2023-06-24T12:53:13;4.03;;;3.72;;
18425;SDS011;9340;48.756;9.226;2023-06-24T12:55:40;4.30;;;4.00;;
18425;SDS011;9340;48.756;9.226;2023-06-24T12:58:07;4.25;;;3.95;;
18425;SDS011;9340;48.756;9.226;2023-06-24T13:00:34;4.38;;;4.00;;
18425;SDS011;9340;48.756;9.226;2023-06-24T13:03:00;4.13;;;3.83;;
18425;SDS011;9340;48.756;9.226;2023-06-24T13:05:27;4.30;;;4.00;;
18425;SDS011;9340;48.756;9.226;2023-06-24T13:07:54;4.28;;;3.97;;
18425;SDS011;9340;48.756;9.226;2023-06-24T13:10:22;3.95;;;3.65;;
18425;SDS011;9340;48.756;9.226;2023-06-24T13:12:48;4.40;;;4.10;;
18425;SDS011;9340;48.756;9.226;2023-06-24T13:15:15;3.70;;;3.40;;
18425;SDS011;9340;48.756;9.226;2023-06-24T13:17:42;4.03;;;3.65;;
18425;SDS011;9340;48.756;9.226;2023-06-24T13:20:09;4.32;;;4.03;;
18425;SDS011;9340;48.756;9.226;2023-06-24T13:22:36;4.20;;;3.90;;
18425;SDS011;9340;48.756;9.226;2023-06-24T13:25:03;4.20;;;3.90;;
18425;SDS011;9340;48.756;9.226;2023-06-24T13:27:32;4.28;;;3.97;;
18425;SDS011;9340;48.756;9.226;2023-06-24T13:29:58;4.13;;;3.83;;
18425;SDS011;9340;48.756;9.226;2023-06-24T13:32:25;4.22;;;3.85;;
18425;SDS011;9340;48.756;9.226;2023-06-24T13:34:52;4.72;;;4.32;;
18425;SDS011;9340;48.756;9.226;2023-06-24T13:37:18;4.57;;;4.28;;
18425;SDS011;9340;48.756;9.226;2023-06-24T13:39:45;4.32;;;4.03;;
18425;SDS011;9340;48.756;9.226;2023-06-24T13:42:12;4.15;;;3.85;;
18425;SDS011;9340;48.756;9.226;2023-06-24T13:44:40;4.30;;;4.00;;
18425;SDS011;9340;48.756;9.226;2023-06-24T13:47:07;3.88;;;3.58;;
18425;SDS011;9340;48.756;9.226;2023-06-24T13:49:34;4.53;;;4.22;;
18425;SDS011;9340;48.756;9.226;2023-06-24T13:52:00;3.90;;;3.60;;
18425;SDS011;9340;48.756;9.226;2023-06-24T13:54:27;4.22;;;3.83;;
18425;SDS011;9340;48.756;9.226;2023-06-24T13:56:57;4.72;;;3.85;;
18425;SDS011;9340;48.756;9.226;2023-06-24T13:59:24;4.60;;;4.30;;
18425;SDS011;9340;48.756;9.226;2023-06-24T14:01:52;4.63;;;4.22;;
18425;SDS011;9340;48.756;9.226;2023-06-24T14:04:19;4.20;;;3.90;;
18425;SDS011;9340;48.756;9.226;2023-06-24T14:06:45;4.28;;;3.88;;
18425;SDS011;9340;48.756;9.226;2023-06-24T14:09:12;4.65;;;4.35;;
18425;SDS011;9340;48.756;9.226;2023-06-24T14:11:39;4.47;;;4.07;;
18425;SDS011;9340;48.756;9.226;2023-06-24T14:14:06;5.15;;;4.45;;
18425;SDS011;9340;48.756;9.226;2023-06-24T14:16:32;3.78;;;3.55;;
18425;SDS011;9340;48.756;9.226;2023-06-24T14:19:00;4.90;;;4.03;;
18425;SDS011;9340;48.756;9.226;2023-06-24T14:21:27;4.47;;;4.18;;
18425;SDS011;9340;48.756;9.226;2023-06-24T14:23:56;4.43;;;4.03;;
18425;SDS011;9340;48.756;9.226;2023-06-24T14:26:23;4.20;;;3.90;;
18425;SDS011;9340;48.756;9.226;2023-06-24T14:28:49;4.20;;;3.90;;
18425;SDS011;9340;48.756;9.226;2023-06-24T14:31:16;4.47;;;4.18;;
18425;SDS011;9340;48.756;9.226;2023-06-24T14:33:43;4.32;;;3.80;;
18425;SDS011;9340;48.756;9.226;2023-06-24T14:36:11;4.13;;;3.60;;
18425;SDS011;9340;48.756;9.226;2023-06-24T14:38:38;4.47;;;4.07;;
18425;SDS011;9340;48.756;9.226;2023-06-24T14:41:06;4.50;;;4.18;;
18425;SDS011;9340;48.756;9.226;2023-06-24T14:43:33;4.38;;;4.03;;
18425;SDS011;9340;48.756;9.226;2023-06-24T14:46:00;4.22;;;3.92;;
18425;SDS011;9340;48.756;9.226;2023-06-24T14:48:27;5.40;;;4.38;;
18425;SDS011;9340;48.756;9.226;2023-06-24T14:50:53;4.63;;;4.28;;
18425;SDS011;9340;48.756;9.226;2023-06-24T14:53:22;4.57;;;4.18;;
18425;SDS011;9340;48.756;9.226;2023-06-24T14:55:48;4.68;;;4.28;;
18425;SDS011;9340;48.756;9.226;2023-06-24T14:58:15;4.07;;;3.78;;
18425;SDS011;9340;48.756;9.226;2023-06-24T15:00:42;4.53;;;4.22;;
18425;SDS011;9340;48.756;9.226;2023-06-24T15:03:08;4.55;;;4.25;;